sensor_id;sensor_type;location;lat;lon;timestamp;pressure;altitude;pressure_sealevel;temperature;humidity
71917;BME280;59793;46.506;6.674;2023-06-22T00:01:27;97076.91;;;23.52;68.24
71917;BME280;59793;46.506;6.674;2023-06-22T00:03:52;97097.28;;;23.66;68.08
71917;BME280;59793;46.506;6.674;2023-06-22T00:06:18;97071.78;;;23.57;67.99
71917;BME280;59793;46.506;6.674;2023-06-22T00:08:43;97090.78;;;23.79;67.58
71917;BME280;59793;46.506;6.674;2023-06-22T00:11:08;97076.78;;;23.72;67.64
71917;BME280;59793;46.506;6.674;2023-06-22T00:13:34;97057.38;;;23.64;67.48
71917;BME280;59793;46.506;6.674;2023-06-22T00:15:59;97062.75;;;23.64;67.43
71917;BME280;59793;46.506;6.674;2023-06-22T00:18:25;97056.16;;;23.52;67.72
71917;BME280;59793;46.506;6.674;2023-06-22T00:20:54;97080.91;;;23.60;68.07
71917;BME280;59793;46.506;6.674;2023-06-22T00:23:22;97080.69;;;23.54;68.16
71917;BME280;59793;46.506;6.674;2023-06-22T00:25:49;97067.34;;;23.51;68.32
71917;BME280;59793;46.506;6.674;2023-06-22T00:28:14;97052.56;;;23.43;68.15
71917;BME280;59793;46.506;6.674;2023-06-22T00:30:42;97070.16;;;23.60;67.96
71917;BME280;59793;46.506;6.674;2023-06-22T00:33:07;97076.63;;;23.62;67.79
71917;BME280;59793;46.506;6.674;2023-06-22T00:35:33;97059.94;;;23.55;67.89
71917;BME280;59793;46.506;6.674;2023-06-22T00:38:00;97067.56;;;23.56;67.68
71917;BME280;59793;46.506;6.674;2023-06-22T00:40:29;97055.94;;;23.47;68.23
71917;BME280;59793;46.506;6.674;2023-06-22T00:42:56;97056.34;;;23.45;68.10
71917;BME280;59793;46.506;6.674;2023-06-22T00:45:25;97046.88;;;23.41;68.36
71917;BME280;59793;46.506;6.674;2023-06-22T00:47:54;97061.13;;;23.54;68.09
71917;BME280;59793;46.506;6.674;2023-06-22T00:50:23;97049.16;;;23.55;67.57
71917;BME280;59793;46.506;6.674;2023-06-22T00:52:53;97026.22;;;23.37;67.64
71917;BME280;59793;46.506;6.674;2023-06-22T00:55:21;97029.44;;;23.45;67.86
71917;BME280;59793;46.506;6.674;2023-06-22T00:57:47;97041.09;;;23.55;67.54
71917;BME280;59793;46.506;6.674;2023-06-22T01:00:14;97046.81;;;23.57;67.57
71917;BME280;59793;46.506;6.674;2023-06-22T01:02:42;97050.66;;;23.56;67.58
71917;BME280;59793;46.506;6.674;2023-06-22T01:05:11;97045.81;;;23.51;67.63
71917;BME280;59793;46.506;6.674;2023-06-22T01:07:44;97007.25;;;23.28;67.24
71917;BME280;59793;46.506;6.674;2023-06-22T01:10:41;97033.97;;;23.48;67.48
71917;BME280;59793;46.506;6.674;2023-06-22T01:14:14;97020.47;;;23.35;67.64
71917;BME280;59793;46.506;6.674;2023-06-22T01:16:24;97029.00;;;23.34;67.68
71917;BME280;59793;46.506;6.674;2023-06-22T01:18:54;97030.69;;;23.28;68.26
71917;BME280;59793;46.506;6.674;2023-06-22T01:21:24;97022.59;;;23.15;68.19
71917;BME280;59793;46.506;6.674;2023-06-22T01:26:57;97018.16;;;23.08;68.47
71917;BME280;59793;46.506;6.674;2023-06-22T01:29:20;97002.31;;;22.81;68.95
71917;BME280;59793;46.506;6.674;2023-06-22T01:31:47;96971.13;;;22.55;69.37
71917;BME280;59793;46.506;6.674;2023-06-22T01:34:14;97002.84;;;22.43;70.23
71917;BME280;59793;46.506;6.674;2023-06-22T01:36:40;97012.00;;;22.46;70.42
71917;BME280;59793;46.506;6.674;2023-06-22T01:39:07;96968.03;;;22.24;70.61
71917;BME280;59793;46.506;6.674;2023-06-22T01:41:36;96968.13;;;22.20;70.73
71917;BME280;59793;46.506;6.674;2023-06-22T01:44:05;96934.63;;;22.08;70.58
71917;BME280;59793;46.506;6.674;2023-06-22T01:46:33;96987.25;;;22.38;70.64
71917;BME280;59793;46.506;6.674;2023-06-22T01:48:59;96967.63;;;22.25;70.55
71917;BME280;59793;46.506;6.674;2023-06-22T01:51:25;96982.53;;;22.10;71.69
71917;BME280;59793;46.506;6.674;2023-06-22T01:53:50;96970.75;;;21.87;71.98
71917;BME280;59793;46.506;6.674;2023-06-22T01:56:17;96989.88;;;21.89;72.22
71917;BME280;59793;46.506;6.674;2023-06-22T01:58:49;96963.50;;;21.68;72.31
71917;BME280;59793;46.506;6.674;2023-06-22T02:01:24;96980.47;;;21.81;72.25
71917;BME280;59793;46.506;6.674;2023-06-22T02:04:01;96954.75;;;21.84;71.66
71917;BME280;59793;46.506;6.674;2023-06-22T02:06:33;96959.44;;;21.96;71.21
71917;BME280;59793;46.506;6.674;2023-06-22T02:09:04;96976.19;;;22.20;70.88
71917;BME280;59793;46.506;6.674;2023-06-22T02:11:32;96956.88;;;22.09;70.75
71917;BME280;59793;46.506;6.674;2023-06-22T02:13:58;96965.94;;;22.15;70.77
71917;BME280;59793;46.506;6.674;2023-06-22T02:16:25;96962.56;;;21.94;71.26
71917;BME280;59793;46.506;6.674;2023-06-22T02:18:54;96926.03;;;21.64;71.47
71917;BME280;59793;46.506;6.674;2023-06-22T02:21:20;96947.00;;;21.69;71.41
71917;BME280;59793;46.506;6.674;2023-06-22T02:23:46;96917.56;;;21.50;71.71
71917;BME280;59793;46.506;6.674;2023-06-22T02:26:12;96953.28;;;21.63;71.84
71917;BME280;59793;46.506;6.674;2023-06-22T02:28:38;96936.06;;;21.44;72.50
71917;BME280;59793;46.506;6.674;2023-06-22T02:31:03;96932.28;;;21.21;73.04
71917;BME280;59793;46.506;6.674;2023-06-22T02:33:29;96964.06;;;21.19;73.58
71917;BME280;59793;46.506;6.674;2023-06-22T02:35:54;96949.03;;;21.06;73.77
71917;BME280;59793;46.506;6.674;2023-06-22T02:38:20;96951.50;;;20.96;74.30
71917;BME280;59793;46.506;6.674;2023-06-22T02:40:46;96946.03;;;21.04;74.53
71917;BME280;59793;46.506;6.674;2023-06-22T02:43:12;96909.41;;;20.97;73.91
71917;BME280;59793;46.506;6.674;2023-06-22T02:45:38;96950.34;;;21.17;73.67
71917;BME280;59793;46.506;6.674;2023-06-22T02:48:03;96927.59;;;21.06;73.30
71917;BME280;59793;46.506;6.674;2023-06-22T02:50:29;96949.38;;;21.28;73.16
71917;BME280;59793;46.506;6.674;2023-06-22T02:52:54;96952.31;;;21.33;72.73
71917;BME280;59793;46.506;6.674;2023-06-22T02:55:20;96934.19;;;21.21;72.75
71917;BME280;59793;46.506;6.674;2023-06-22T02:57:45;96946.44;;;21.22;72.80
71917;BME280;59793;46.506;6.674;2023-06-22T03:00:14;96946.72;;;21.08;72.98
71917;BME280;59793;46.506;6.674;2023-06-22T03:02:47;96950.19;;;21.05;72.12
71917;BME280;59793;46.506;6.674;2023-06-22T03:05:13;96948.09;;;20.96;72.23
71917;BME280;59793;46.506;6.674;2023-06-22T03:07:40;96916.28;;;20.78;72.66
71917;BME280;59793;46.506;6.674;2023-06-22T03:10:08;96930.00;;;20.80;72.80
71917;BME280;59793;46.506;6.674;2023-06-22T03:12:34;96951.44;;;21.00;72.80
71917;BME280;59793;46.506;6.674;2023-06-22T03:14:59;96939.78;;;21.10;72.42
71917;BME280;59793;46.506;6.674;2023-06-22T03:17:25;96961.06;;;21.37;71.91
71917;BME280;59793;46.506;6.674;2023-06-22T03:19:50;96954.03;;;21.63;71.48
71917;BME280;59793;46.506;6.674;2023-06-22T03:22:15;96951.88;;;21.75;71.27
71917;BME280;59793;46.506;6.674;2023-06-22T03:24:41;96926.41;;;21.66;71.06
71917;BME280;59793;46.506;6.674;2023-06-22T03:27:06;96958.34;;;21.77;71.61
71917;BME280;59793;46.506;6.674;2023-06-22T03:29:31;96951.03;;;21.78;71.22
71917;BME280;59793;46.506;6.674;2023-06-22T03:31:57;96950.47;;;21.86;70.86
71917;BME280;59793;46.506;6.674;2023-06-22T03:34:22;96909.06;;;21.71;70.69
71917;BME280;59793;46.506;6.674;2023-06-22T03:36:48;96936.34;;;21.66;71.51
71917;BME280;59793;46.506;6.674;2023-06-22T03:39:13;96898.53;;;21.44;71.40
71917;BME280;59793;46.506;6.674;2023-06-22T03:41:38;96929.84;;;21.83;71.06
71917;BME280;59793;46.506;6.674;2023-06-22T03:44:04;96957.03;;;22.02;70.91
71917;BME280;59793;46.506;6.674;2023-06-22T03:46:29;96957.69;;;22.06;70.87
71917;BME280;59793;46.506;6.674;2023-06-22T03:48:55;96938.22;;;21.85;71.17
71917;BME280;59793;46.506;6.674;2023-06-22T03:51:20;96966.41;;;21.93;71.53
71917;BME280;59793;46.506;6.674;2023-06-22T03:53:45;96962.56;;;21.94;71.09
71917;BME280;59793;46.506;6.674;2023-06-22T03:56:11;96941.47;;;21.77;70.88
71917;BME280;59793;46.506;6.674;2023-06-22T03:58:36;96942.47;;;21.66;71.27
71917;BME280;59793;46.506;6.674;2023-06-22T04:01:08;96960.66;;;21.75;71.32
71917;BME280;59793;46.506;6.674;2023-06-22T04:03:36;96960.16;;;21.64;71.89
71917;BME280;59793;46.506;6.674;2023-06-22T04:06:07;96962.53;;;21.78;71.66
71917;BME280;59793;46.506;6.674;2023-06-22T04:08:45;96970.91;;;21.80;71.89
71917;BME280;59793;46.506;6.674;2023-06-22T04:11:13;96898.94;;;21.42;71.48
71917;BME280;59793;46.506;6.674;2023-06-22T04:13:38;96937.78;;;21.70;70.84
71917;BME280;59793;46.506;6.674;2023-06-22T04:16:04;96965.56;;;21.80;70.42
71917;BME280;59793;46.506;6.674;2023-06-22T04:18:29;96957.63;;;21.73;70.26
71917;BME280;59793;46.506;6.674;2023-06-22T04:20:54;96962.47;;;21.62;70.66
71917;BME280;59793;46.506;6.674;2023-06-22T04:23:20;96992.91;;;21.91;70.45
71917;BME280;59793;46.506;6.674;2023-06-22T04:25:45;97003.28;;;21.89;70.47
71917;BME280;59793;46.506;6.674;2023-06-22T04:28:10;97004.47;;;22.05;70.11
71917;BME280;59793;46.506;6.674;2023-06-22T04:30:37;96995.34;;;22.02;70.30
71917;BME280;59793;46.506;6.674;2023-06-22T04:33:14;97014.16;;;22.18;70.58
71917;BME280;59793;46.506;6.674;2023-06-22T04:35:40;96980.41;;;22.01;70.06
71917;BME280;59793;46.506;6.674;2023-06-22T04:38:08;96979.91;;;22.06;70.16
71917;BME280;59793;46.506;6.674;2023-06-22T04:40:34;97013.44;;;22.34;70.07
71917;BME280;59793;46.506;6.674;2023-06-22T04:42:59;97025.25;;;22.37;69.50
71917;BME280;59793;46.506;6.674;2023-06-22T04:45:28;97060.66;;;22.32;69.53
71917;BME280;59793;46.506;6.674;2023-06-22T04:47:54;97049.13;;;22.15;70.14
71917;BME280;59793;46.506;6.674;2023-06-22T04:50:20;97028.03;;;22.33;70.23
71917;BME280;59793;46.506;6.674;2023-06-22T04:52:47;97037.41;;;22.41;69.84
71917;BME280;59793;46.506;6.674;2023-06-22T04:55:13;97017.88;;;22.41;70.12
71917;BME280;59793;46.506;6.674;2023-06-22T04:57:42;97039.59;;;22.79;70.28
71917;BME280;59793;46.506;6.674;2023-06-22T05:00:10;97063.50;;;22.74;70.38
71917;BME280;59793;46.506;6.674;2023-06-22T05:02:40;97130.56;;;22.45;70.03
71917;BME280;59793;46.506;6.674;2023-06-22T05:05:05;97194.44;;;22.13;71.91
71917;BME280;59793;46.506;6.674;2023-06-22T05:07:35;97270.66;;;22.19;73.09
71917;BME280;59793;46.506;6.674;2023-06-22T05:10:02;97243.94;;;22.32;73.65
71917;BME280;59793;46.506;6.674;2023-06-22T05:12:28;97216.03;;;22.46;73.49
71917;BME280;59793;46.506;6.674;2023-06-22T05:14:54;97200.47;;;22.57;73.82
71917;BME280;59793;46.506;6.674;2023-06-22T05:17:24;97162.28;;;22.50;73.34
71917;BME280;59793;46.506;6.674;2023-06-22T05:19:50;97160.59;;;22.56;72.52
71917;BME280;59793;46.506;6.674;2023-06-22T05:22:15;97195.09;;;22.57;72.64
71917;BME280;59793;46.506;6.674;2023-06-22T05:24:42;97177.41;;;22.24;73.72
71917;BME280;59793;46.506;6.674;2023-06-22T05:27:09;97190.84;;;22.00;74.53
71917;BME280;59793;46.506;6.674;2023-06-22T05:29:36;97250.19;;;21.82;75.59
71917;BME280;59793;46.506;6.674;2023-06-22T05:32:02;97217.44;;;21.24;75.55
71917;BME280;59793;46.506;6.674;2023-06-22T05:34:28;97255.09;;;21.87;75.47
71917;BME280;59793;46.506;6.674;2023-06-22T05:36:53;97222.78;;;21.94;74.78
71917;BME280;59793;46.506;6.674;2023-06-22T05:39:20;97237.69;;;21.95;73.29
71917;BME280;59793;46.506;6.674;2023-06-22T05:41:47;97290.66;;;21.91;74.49
71917;BME280;59793;46.506;6.674;2023-06-22T05:44:12;97266.03;;;21.96;74.38
71917;BME280;59793;46.506;6.674;2023-06-22T05:46:42;97263.84;;;22.11;74.79
71917;BME280;59793;46.506;6.674;2023-06-22T05:49:12;97265.75;;;22.14;73.21
71917;BME280;59793;46.506;6.674;2023-06-22T05:51:38;97294.88;;;22.16;73.65
71917;BME280;59793;46.506;6.674;2023-06-22T05:54:03;97296.31;;;22.21;73.38
71917;BME280;59793;46.506;6.674;2023-06-22T05:56:29;97294.97;;;22.09;72.76
71917;BME280;59793;46.506;6.674;2023-06-22T05:58:54;97293.06;;;22.29;72.56
71917;BME280;59793;46.506;6.674;2023-06-22T06:01:19;97291.50;;;22.32;72.49
71917;BME280;59793;46.506;6.674;2023-06-22T06:03:45;97271.19;;;22.31;72.74
71917;BME280;59793;46.506;6.674;2023-06-22T06:06:11;97240.91;;;21.87;73.45
71917;BME280;59793;46.506;6.674;2023-06-22T06:08:37;97302.16;;;22.12;73.66
71917;BME280;59793;46.506;6.674;2023-06-22T06:11:02;97280.84;;;22.05;74.36
71917;BME280;59793;46.506;6.674;2023-06-22T06:13:28;97295.56;;;22.20;73.97
71917;BME280;59793;46.506;6.674;2023-06-22T06:15:53;97233.47;;;21.75;74.56
71917;BME280;59793;46.506;6.674;2023-06-22T06:18:20;97272.50;;;21.99;75.27
71917;BME280;59793;46.506;6.674;2023-06-22T06:20:46;97297.75;;;22.25;74.93
71917;BME280;59793;46.506;6.674;2023-06-22T06:23:11;97260.78;;;22.13;74.39
71917;BME280;59793;46.506;6.674;2023-06-22T06:25:36;97272.72;;;22.52;74.08
71917;BME280;59793;46.506;6.674;2023-06-22T06:28:02;97214.78;;;22.51;74.22
71917;BME280;59793;46.506;6.674;2023-06-22T06:30:28;97190.63;;;22.51;74.22
71917;BME280;59793;46.506;6.674;2023-06-22T06:32:54;97146.63;;;22.28;74.09
71917;BME280;59793;46.506;6.674;2023-06-22T06:35:20;97192.69;;;22.63;74.35
71917;BME280;59793;46.506;6.674;2023-06-22T06:37:50;97200.50;;;22.74;73.71
71917;BME280;59793;46.506;6.674;2023-06-22T06:40:17;97185.66;;;22.85;73.13
71917;BME280;59793;46.506;6.674;2023-06-22T06:42:47;97147.63;;;22.87;72.71
71917;BME280;59793;46.506;6.674;2023-06-22T06:45:21;97122.69;;;22.70;73.44
71917;BME280;59793;46.506;6.674;2023-06-22T06:47:48;97095.31;;;22.75;72.78
71917;BME280;59793;46.506;6.674;2023-06-22T06:50:15;97111.28;;;22.99;72.00
71917;BME280;59793;46.506;6.674;2023-06-22T06:52:41;97109.78;;;22.98;72.79
71917;BME280;59793;46.506;6.674;2023-06-22T06:55:07;97137.56;;;22.91;72.89
71917;BME280;59793;46.506;6.674;2023-06-22T06:57:37;97159.31;;;22.80;73.65
71917;BME280;59793;46.506;6.674;2023-06-22T07:00:04;97191.41;;;22.51;74.99
71917;BME280;59793;46.506;6.674;2023-06-22T07:02:34;97192.38;;;22.41;75.63
71917;BME280;59793;46.506;6.674;2023-06-22T07:05:00;97209.91;;;22.46;75.28
71917;BME280;59793;46.506;6.674;2023-06-22T07:07:25;97178.38;;;22.50;74.50
71917;BME280;59793;46.506;6.674;2023-06-22T07:09:52;97172.22;;;22.85;73.58
71917;BME280;59793;46.506;6.674;2023-06-22T07:12:17;97161.09;;;23.03;72.33
71917;BME280;59793;46.506;6.674;2023-06-22T07:15:11;97180.03;;;23.45;72.44
71917;BME280;59793;46.506;6.674;2023-06-22T07:17:45;97226.09;;;23.47;71.43
71917;BME280;59793;46.506;6.674;2023-06-22T07:20:11;97209.03;;;23.37;71.02
71917;BME280;59793;46.506;6.674;2023-06-22T07:22:41;97218.09;;;23.76;70.33
71917;BME280;59793;46.506;6.674;2023-06-22T07:25:06;97186.34;;;23.71;67.79
71917;BME280;59793;46.506;6.674;2023-06-22T07:27:39;97210.00;;;24.05;67.26
71917;BME280;59793;46.506;6.674;2023-06-22T07:30:09;97224.84;;;24.26;67.00
71917;BME280;59793;46.506;6.674;2023-06-22T07:32:35;97202.69;;;24.06;64.83
71917;BME280;59793;46.506;6.674;2023-06-22T07:35:00;97192.97;;;24.25;65.22
71917;BME280;59793;46.506;6.674;2023-06-22T07:37:27;97172.38;;;24.31;66.13
71917;BME280;59793;46.506;6.674;2023-06-22T07:39:53;97165.00;;;24.48;66.46
71917;BME280;59793;46.506;6.674;2023-06-22T07:42:19;97146.53;;;24.33;66.65
71917;BME280;59793;46.506;6.674;2023-06-22T07:44:50;97126.19;;;24.32;66.72
71917;BME280;59793;46.506;6.674;2023-06-22T07:47:16;97124.38;;;24.55;66.81
71917;BME280;59793;46.506;6.674;2023-06-22T07:49:43;97093.53;;;24.30;66.28
71917;BME280;59793;46.506;6.674;2023-06-22T07:52:09;97106.19;;;24.46;66.21
71917;BME280;59793;46.506;6.674;2023-06-22T07:54:34;97093.38;;;24.63;66.51
71917;BME280;59793;46.506;6.674;2023-06-22T07:56:59;97062.84;;;24.66;66.66
71917;BME280;59793;46.506;6.674;2023-06-22T07:59:25;97068.97;;;24.79;64.88
71917;BME280;59793;46.506;6.674;2023-06-22T08:01:50;97074.94;;;25.09;64.13
71917;BME280;59793;46.506;6.674;2023-06-22T08:04:16;97056.94;;;25.06;63.61
71917;BME280;59793;46.506;6.674;2023-06-22T08:06:41;97045.69;;;25.20;63.75
71917;BME280;59793;46.506;6.674;2023-06-22T08:09:09;97019.34;;;25.24;63.79
71917;BME280;59793;46.506;6.674;2023-06-22T08:11:34;97015.19;;;25.33;63.38
71917;BME280;59793;46.506;6.674;2023-06-22T08:13:59;97021.19;;;25.27;62.98
71917;BME280;59793;46.506;6.674;2023-06-22T08:16:25;97017.28;;;24.94;64.96
71917;BME280;59793;46.506;6.674;2023-06-22T08:18:50;97013.88;;;24.80;66.08
71917;BME280;59793;46.506;6.674;2023-06-22T08:21:16;97007.84;;;24.76;66.34
71917;BME280;59793;46.506;6.674;2023-06-22T08:23:42;97010.16;;;24.65;66.02
71917;BME280;59793;46.506;6.674;2023-06-22T08:26:07;97051.13;;;24.60;65.92
71917;BME280;59793;46.506;6.674;2023-06-22T08:28:43;97035.53;;;24.42;66.96
71917;BME280;59793;46.506;6.674;2023-06-22T08:31:08;97035.59;;;24.51;66.35
71917;BME280;59793;46.506;6.674;2023-06-22T08:33:34;97033.66;;;24.39;66.85
71917;BME280;59793;46.506;6.674;2023-06-22T08:36:00;97046.47;;;24.48;67.12
71917;BME280;59793;46.506;6.674;2023-06-22T08:38:26;97037.31;;;24.71;67.13
71917;BME280;59793;46.506;6.674;2023-06-22T08:40:51;97037.69;;;24.82;66.41
71917;BME280;59793;46.506;6.674;2023-06-22T08:43:18;97032.19;;;24.86;65.57
71917;BME280;59793;46.506;6.674;2023-06-22T08:45:44;97041.25;;;24.92;65.15
71917;BME280;59793;46.506;6.674;2023-06-22T08:48:09;97019.69;;;24.92;65.38
71917;BME280;59793;46.506;6.674;2023-06-22T08:50:34;97046.38;;;24.99;64.66
71917;BME280;59793;46.506;6.674;2023-06-22T08:53:00;97048.25;;;24.89;64.87
71917;BME280;59793;46.506;6.674;2023-06-22T08:55:25;96981.47;;;24.71;64.38
71917;BME280;59793;46.506;6.674;2023-06-22T08:57:50;97029.00;;;25.13;63.47
71917;BME280;59793;46.506;6.674;2023-06-22T09:00:21;96980.88;;;24.89;64.17
71917;BME280;59793;46.506;6.674;2023-06-22T09:02:47;97017.53;;;25.21;65.10
71917;BME280;59793;46.506;6.674;2023-06-22T09:05:13;97015.94;;;25.33;63.74
71917;BME280;59793;46.506;6.674;2023-06-22T09:07:40;97015.41;;;24.82;64.61
71917;BME280;59793;46.506;6.674;2023-06-22T09:10:05;97041.59;;;24.68;65.24
71917;BME280;59793;46.506;6.674;2023-06-22T09:12:31;97022.78;;;24.30;66.14
71917;BME280;59793;46.506;6.674;2023-06-22T09:14:59;97018.16;;;24.43;65.84
71917;BME280;59793;46.506;6.674;2023-06-22T09:17:26;97069.41;;;24.27;67.26
71917;BME280;59793;46.506;6.674;2023-06-22T09:19:51;97058.31;;;23.87;69.76
71917;BME280;59793;46.506;6.674;2023-06-22T09:22:17;97030.22;;;24.00;69.56
71917;BME280;59793;46.506;6.674;2023-06-22T09:24:42;97060.91;;;24.03;69.09
71917;BME280;59793;46.506;6.674;2023-06-22T09:27:08;97042.81;;;23.91;70.25
71917;BME280;59793;46.506;6.674;2023-06-22T09:29:33;97057.97;;;23.72;71.35
71917;BME280;59793;46.506;6.674;2023-06-22T09:32:02;97027.22;;;23.56;71.55
71917;BME280;59793;46.506;6.674;2023-06-22T09:34:27;97057.69;;;23.66;71.59
71917;BME280;59793;46.506;6.674;2023-06-22T09:36:53;97055.47;;;23.77;71.05
71917;BME280;59793;46.506;6.674;2023-06-22T09:39:19;97033.88;;;23.52;70.94
71917;BME280;59793;46.506;6.674;2023-06-22T09:41:44;97099.94;;;23.82;71.68
71917;BME280;59793;46.506;6.674;2023-06-22T09:44:09;97100.78;;;23.50;73.00
71917;BME280;59793;46.506;6.674;2023-06-22T09:46:35;97085.69;;;23.40;73.80
71917;BME280;59793;46.506;6.674;2023-06-22T09:49:00;97103.72;;;23.55;73.36
71917;BME280;59793;46.506;6.674;2023-06-22T09:51:26;97103.66;;;23.43;72.52
71917;BME280;59793;46.506;6.674;2023-06-22T09:53:51;97141.81;;;23.37;72.31
71917;BME280;59793;46.506;6.674;2023-06-22T09:56:18;97155.09;;;23.28;72.39
71917;BME280;59793;46.506;6.674;2023-06-22T09:58:45;97184.19;;;23.33;71.29
71917;BME280;59793;46.506;6.674;2023-06-22T10:01:18;97184.94;;;23.34;70.79
71917;BME280;59793;46.506;6.674;2023-06-22T10:03:44;97213.25;;;23.38;71.07
71917;BME280;59793;46.506;6.674;2023-06-22T10:06:10;97223.75;;;23.33;71.54
71917;BME280;59793;46.506;6.674;2023-06-22T10:08:35;97230.56;;;23.37;72.80
71917;BME280;59793;46.506;6.674;2023-06-22T10:11:01;97196.59;;;23.44;71.19
71917;BME280;59793;46.506;6.674;2023-06-22T10:13:26;97226.91;;;23.77;67.10
71917;BME280;59793;46.506;6.674;2023-06-22T10:15:52;97215.06;;;23.74;65.63
71917;BME280;59793;46.506;6.674;2023-06-22T10:18:18;97224.66;;;23.75;67.29
71917;BME280;59793;46.506;6.674;2023-06-22T10:20:48;97182.75;;;23.91;63.46
71917;BME280;59793;46.506;6.674;2023-06-22T10:23:13;97200.97;;;23.99;62.96
71917;BME280;59793;46.506;6.674;2023-06-22T10:25:39;97217.69;;;24.07;62.22
71917;BME280;59793;46.506;6.674;2023-06-22T10:28:06;97210.56;;;24.13;61.08
71917;BME280;59793;46.506;6.674;2023-06-22T10:30:32;97202.19;;;24.24;59.98
71917;BME280;59793;46.506;6.674;2023-06-22T10:32:57;97133.25;;;24.01;55.98
71917;BME280;59793;46.506;6.674;2023-06-22T10:35:23;97160.97;;;24.27;55.34
71917;BME280;59793;46.506;6.674;2023-06-22T10:37:48;97195.63;;;24.54;53.15
71917;BME280;59793;46.506;6.674;2023-06-22T10:40:15;97161.34;;;24.42;52.43
71917;BME280;59793;46.506;6.674;2023-06-22T10:42:41;97172.44;;;24.69;49.60
71917;BME280;59793;46.506;6.674;2023-06-22T10:45:07;97178.81;;;24.75;48.79
71917;BME280;59793;46.506;6.674;2023-06-22T10:47:34;97174.06;;;24.79;49.60
71917;BME280;59793;46.506;6.674;2023-06-22T10:49:59;97120.81;;;24.58;48.89
71917;BME280;59793;46.506;6.674;2023-06-22T10:52:24;97100.59;;;24.53;49.91
71917;BME280;59793;46.506;6.674;2023-06-22T10:54:50;97154.66;;;24.85;49.81
71917;BME280;59793;46.506;6.674;2023-06-22T10:57:16;97166.31;;;24.82;50.52
71917;BME280;59793;46.506;6.674;2023-06-22T10:59:42;97203.41;;;24.77;51.33
71917;BME280;59793;46.506;6.674;2023-06-22T11:02:10;97113.81;;;24.35;51.68
71917;BME280;59793;46.506;6.674;2023-06-22T11:04:35;97157.38;;;24.46;51.94
71917;BME280;59793;46.506;6.674;2023-06-22T11:07:02;97160.56;;;24.41;53.06
71917;BME280;59793;46.506;6.674;2023-06-22T11:09:29;97181.81;;;24.52;54.21
71917;BME280;59793;46.506;6.674;2023-06-22T11:11:55;97196.25;;;24.45;55.95
71917;BME280;59793;46.506;6.674;2023-06-22T11:14:21;97181.94;;;24.19;56.95
71917;BME280;59793;46.506;6.674;2023-06-22T11:16:47;97204.59;;;24.34;57.31
71917;BME280;59793;46.506;6.674;2023-06-22T11:19:13;97185.25;;;24.40;57.41
71917;BME280;59793;46.506;6.674;2023-06-22T11:21:38;97162.19;;;24.39;57.18
71917;BME280;59793;46.506;6.674;2023-06-22T11:24:04;97197.34;;;24.73;58.18
71917;BME280;59793;46.506;6.674;2023-06-22T11:26:30;97184.72;;;24.83;58.15
71917;BME280;59793;46.506;6.674;2023-06-22T11:28:57;97140.75;;;24.73;58.59
71917;BME280;59793;46.506;6.674;2023-06-22T11:31:24;97167.06;;;24.82;57.96
71917;BME280;59793;46.506;6.674;2023-06-22T11:33:49;97126.84;;;24.62;58.12
71917;BME280;59793;46.506;6.674;2023-06-22T11:36:15;97152.31;;;24.74;58.33
71917;BME280;59793;46.506;6.674;2023-06-22T11:38:42;97137.00;;;24.58;59.57
71917;BME280;59793;46.506;6.674;2023-06-22T11:41:08;97105.41;;;24.33;59.04
71917;BME280;59793;46.506;6.674;2023-06-22T11:43:34;97184.28;;;24.97;58.34
71917;BME280;59793;46.506;6.674;2023-06-22T11:46:01;97156.16;;;24.73;56.39
71917;BME280;59793;46.506;6.674;2023-06-22T11:48:26;97176.88;;;24.89;56.84
71917;BME280;59793;46.506;6.674;2023-06-22T11:50:52;97176.22;;;24.85;55.71
71917;BME280;59793;46.506;6.674;2023-06-22T11:53:17;97225.81;;;25.00;55.64
71917;BME280;59793;46.506;6.674;2023-06-22T11:55:43;97210.41;;;24.75;56.22
71917;BME280;59793;46.506;6.674;2023-06-22T11:58:10;97221.16;;;24.75;56.27
71917;BME280;59793;46.506;6.674;2023-06-22T12:00:36;97227.31;;;24.75;58.43
71917;BME280;59793;46.506;6.674;2023-06-22T12:03:02;97242.59;;;24.53;58.10
71917;BME280;59793;46.506;6.674;2023-06-22T12:05:27;97233.63;;;24.43;57.71
71917;BME280;59793;46.506;6.674;2023-06-22T12:07:53;97191.38;;;24.40;59.01
71917;BME280;59793;46.506;6.674;2023-06-22T12:10:20;97143.34;;;24.51;60.15
71917;BME280;59793;46.506;6.674;2023-06-22T12:12:45;97126.00;;;24.40;61.88
71917;BME280;59793;46.506;6.674;2023-06-22T12:15:11;97122.19;;;24.24;61.56
71917;BME280;59793;46.506;6.674;2023-06-22T12:17:36;97182.91;;;24.67;60.74
71917;BME280;59793;46.506;6.674;2023-06-22T12:20:02;97145.06;;;24.58;61.05
71917;BME280;59793;46.506;6.674;2023-06-22T12:22:31;97152.19;;;24.77;62.45
71917;BME280;59793;46.506;6.674;2023-06-22T12:25:00;97089.13;;;24.62;61.56
71917;BME280;59793;46.506;6.674;2023-06-22T12:27:26;97105.81;;;24.83;61.45
71917;BME280;59793;46.506;6.674;2023-06-22T12:29:52;97120.56;;;25.16;59.78
71917;BME280;59793;46.506;6.674;2023-06-22T12:32:17;97115.25;;;25.25;58.06
71917;BME280;59793;46.506;6.674;2023-06-22T12:34:43;97130.50;;;25.41;59.53
71917;BME280;59793;46.506;6.674;2023-06-22T12:37:08;97076.69;;;25.03;60.64
71917;BME280;59793;46.506;6.674;2023-06-22T12:39:34;97128.00;;;25.69;61.23
71917;BME280;59793;46.506;6.674;2023-06-22T12:42:00;97131.41;;;26.04;55.86
71917;BME280;59793;46.506;6.674;2023-06-22T12:44:25;97149.44;;;26.07;55.10
71917;BME280;59793;46.506;6.674;2023-06-22T12:46:51;97149.75;;;26.09;54.72
71917;BME280;59793;46.506;6.674;2023-06-22T12:49:16;97151.41;;;25.85;50.08
71917;BME280;59793;46.506;6.674;2023-06-22T12:51:43;97158.47;;;25.69;50.71
71917;BME280;59793;46.506;6.674;2023-06-22T12:54:09;97154.44;;;25.52;50.66
71917;BME280;59793;46.506;6.674;2023-06-22T12:56:35;97160.69;;;25.84;50.21
71917;BME280;59793;46.506;6.674;2023-06-22T12:59:00;97108.41;;;25.90;47.95
71917;BME280;59793;46.506;6.674;2023-06-22T13:01:29;97144.91;;;26.57;48.01